Time;durP1;ratioP1;P1;durP2;ratioP2;P2;SDS_P1;SDS_P2;PMS_P1;PMS_P2;Temp;Humidity;BMP_temperature;BMP_pressure;BME280_temperature;BME280_humidity;BME280_pressure;Samples;Min_cycle;Max_cycle;Signal;HPM_P1;HPM_P2
2023/12/01 00:01:12;;;;;;;;;;;19.20;44.90;;;;;;7397924;19;1853;-62
2023/12/01 00:03:37;;;;;;;;;;;19.20;45.00;;;;;;7396463;19;3288;-60
2023/12/01 00:06:03;;;;;;;;;;;19.20;45.10;;;;;;7397530;19;1508;-61
2023/12/01 00:08:29;;;;;;;;;;;19.10;45.10;;;;;;7393946;19;3612;-61
2023/12/01 00:10:55;;;;;;;;;;;19.10;45.20;;;;;;7395382;19;4013;-60
2023/12/01 00:13:20;;;;;;;;;;;19.10;45.10;;;;;;7399668;19;2383;-61
2023/12/01 00:15:46;;;;;;;;;;;19.10;45.40;;;;;;7395881;19;3296;-60
2023/12/01 00:18:11;;;;;;;;;;;19.10;45.30;;;;;;7396468;19;979;-60
2023/12/01 00:20:36;;;;;;;;;;;19.10;45.20;;;;;;7396864;19;1837;-60
2023/12/01 00:23:02;;;;;;;;;;;19.10;45.20;;;;;;7396757;19;4450;-60
2023/12/01 00:25:27;;;;;;;;;;;19.10;45.20;;;;;;7396759;19;3589;-61
2023/12/01 00:27:53;;;;;;;;;;;19.10;45.30;;;;;;7399943;19;3905;-61
2023/12/01 00:30:18;;;;;;;;;;;19.00;45.00;;;;;;7396468;19;1760;-60
2023/12/01 00:32:44;;;;;;;;;;;19.00;45.10;;;;;;7396845;19;3561;-60
2023/12/01 00:35:09;;;;;;;;;;;19.00;45.40;;;;;;7399381;19;1829;-61
2023/12/01 00:37:34;;;;;;;;;;;19.00;45.30;;;;;;7395564;19;3459;-60
2023/12/01 00:40:00;;;;;;;;;;;19.00;45.20;;;;;;7397941;19;3888;-61
2023/12/01 00:42:25;;;;;;;;;;;18.90;45.10;;;;;;7395872;19;1859;-61
2023/12/01 00:44:52;;;;;;;;;;;19.00;45.30;;;;;;7396370;19;1605;-61
2023/12/01 00:47:17;;;;;;;;;;;18.90;45.40;;;;;;7396741;19;3898;-61
2023/12/01 00:49:42;;;;;;;;;;;18.90;46.00;;;;;;7396668;19;3618;-61
2023/12/01 00:52:08;;;;;;;;;;;18.90;45.30;;;;;;7396837;19;3417;-60
2023/12/01 00:54:33;;;;;;;;;;;18.90;45.30;;;;;;7398597;19;3875;-60
2023/12/01 00:56:59;;;;;;;;;;;18.90;45.30;;;;;;7397820;19;1566;-62
2023/12/01 00:59:24;;;;;;;;;;;18.90;45.20;;;;;;7391462;19;3851;-61
2023/12/01 01:01:50;;;;;;;;;;;18.80;45.10;;;;;;7396458;19;1972;-61
2023/12/01 01:04:15;;;;;;;;;;;18.80;45.20;;;;;;7396464;19;1560;-60
2023/12/01 01:06:40;;;;;;;;;;;18.80;45.10;;;;;;7395674;19;4231;-61
2023/12/01 01:09:06;;;;;;;;;;;18.80;45.30;;;;;;7399044;19;3985;-60
2023/12/01 01:11:31;;;;;;;;;;;18.70;45.10;;;;;;7394957;19;3817;-60
2023/12/01 01:13:59;;;;;;;;;;;18.70;45.10;;;;;;7394846;19;4068;-60
2023/12/01 01:16:24;;;;;;;;;;;18.70;45.20;;;;;;7397975;19;3278;-60
2023/12/01 01:18:50;;;;;;;;;;;18.70;45.40;;;;;;7398806;19;1580;-60
2023/12/01 01:21:16;;;;;;;;;;;18.70;45.40;;;;;;7392135;19;3491;-62
2023/12/01 01:23:42;;;;;;;;;;;18.60;45.40;;;;;;7394037;19;3857;-60
2023/12/01 01:26:07;;;;;;;;;;;18.60;45.40;;;;;;7397643;19;1600;-60
2023/12/01 01:28:33;;;;;;;;;;;18.60;45.40;;;;;;7397302;19;1568;-60
2023/12/01 01:30:58;;;;;;;;;;;18.60;45.40;;;;;;7392829;19;4181;-60
2023/12/01 01:33:24;;;;;;;;;;;18.60;45.40;;;;;;7398903;19;1620;-60
2023/12/01 01:35:49;;;;;;;;;;;18.60;45.40;;;;;;7393957;19;3657;-61
2023/12/01 01:38:14;;;;;;;;;;;18.60;45.40;;;;;;7396358;19;1500;-60
2023/12/01 01:40:40;;;;;;;;;;;18.60;45.40;;;;;;7393120;19;1857;-61
2023/12/01 01:43:05;;;;;;;;;;;18.60;45.20;;;;;;7396069;19;3442;-62
2023/12/01 01:45:31;;;;;;;;;;;18.60;45.10;;;;;;7396610;19;4067;-60
2023/12/01 01:47:57;;;;;;;;;;;18.60;45.30;;;;;;7397282;19;1948;-62
2023/12/01 01:50:22;;;;;;;;;;;18.60;45.10;;;;;;7396863;19;1803;-61
2023/12/01 01:52:48;;;;;;;;;;;18.60;45.10;;;;;;7393410;19;3491;-61
2023/12/01 01:55:13;;;;;;;;;;;18.60;45.10;;;;;;7396687;19;1679;-60
2023/12/01 01:57:40;;;;;;;;;;;18.60;45.80;;;;;;7393519;19;4286;-60
2023/12/01 02:00:06;;;;;;;;;;;18.60;45.10;;;;;;7393519;19;2043;-60
2023/12/01 02:02:32;;;;;;;;;;;18.60;45.10;;;;;;7397112;19;1590;-62
2023/12/01 02:04:57;;;;;;;;;;;18.60;45.20;;;;;;7392592;19;4202;-61
2023/12/01 02:07:25;;;;;;;;;;;18.60;45.20;;;;;;7395065;19;1619;-60
2023/12/01 02:09:50;;;;;;;;;;;18.50;45.30;;;;;;7391787;19;868;-60
2023/12/01 02:12:15;;;;;;;;;;;18.50;45.10;;;;;;7391709;19;3978;-60
2023/12/01 02:14:41;;;;;;;;;;;18.50;45.90;;;;;;7395572;19;1711;-60
2023/12/01 02:17:06;;;;;;;;;;;18.50;45.30;;;;;;7394661;19;1537;-60
2023/12/01 02:19:32;;;;;;;;;;;18.40;45.40;;;;;;7395126;19;1507;-60
2023/12/01 02:21:57;;;;;;;;;;;18.40;45.30;;;;;;7387919;19;3906;-60
2023/12/01 02:24:23;;;;;;;;;;;18.40;45.40;;;;;;7396309;19;3695;-60
2023/12/01 02:26:48;;;;;;;;;;;18.40;45.40;;;;;;7402725;19;1757;-61
2023/12/01 02:29:14;;;;;;;;;;;18.40;45.30;;;;;;7398668;19;3470;-60
2023/12/01 02:31:39;;;;;;;;;;;18.40;45.10;;;;;;7403473;19;1728;-60
2023/12/01 02:34:04;;;;;;;;;;;18.40;45.30;;;;;;7401779;19;3897;-60
2023/12/01 02:36:30;;;;;;;;;;;18.40;45.30;;;;;;7402987;19;3836;-60
2023/12/01 02:38:55;;;;;;;;;;;18.40;45.10;;;;;;7400053;19;856;-60
2023/12/01 02:41:21;;;;;;;;;;;18.40;45.10;;;;;;7395893;19;3362;-60
2023/12/01 02:43:46;;;;;;;;;;;18.40;45.20;;;;;;7399921;19;1968;-60
2023/12/01 02:46:12;;;;;;;;;;;18.40;44.90;;;;;;7401253;19;1654;-60
2023/12/01 02:48:38;;;;;;;;;;;18.40;44.90;;;;;;7399676;19;990;-60
2023/12/01 02:51:04;;;;;;;;;;;18.40;45.00;;;;;;7398615;19;3679;-60
2023/12/01 02:53:29;;;;;;;;;;;18.40;45.10;;;;;;7401361;19;1591;-60
2023/12/01 02:55:55;;;;;;;;;;;18.40;45.00;;;;;;7399500;19;3891;-61
2023/12/01 02:58:20;;;;;;;;;;;18.40;45.00;;;;;;7399075;19;1586;-60
2023/12/01 03:00:47;;;;;;;;;;;18.40;45.00;;;;;;7400007;19;1994;-60
2023/12/01 03:03:12;;;;;;;;;;;18.30;45.00;;;;;;7397623;19;3403;-60
2023/12/01 03:05:38;;;;;;;;;;;18.30;45.00;;;;;;7401193;19;1625;-60
2023/12/01 03:08:03;;;;;;;;;;;18.30;44.90;;;;;;7398561;19;870;-60
2023/12/01 03:10:29;;;;;;;;;;;18.30;45.10;;;;;;7397484;19;3499;-60
2023/12/01 03:12:54;;;;;;;;;;;18.30;45.10;;;;;;7401002;19;1536;-60
2023/12/01 03:15:22;;;;;;;;;;;18.30;45.10;;;;;;7399754;19;1807;-60
2023/12/01 03:17:48;;;;;;;;;;;18.30;45.10;;;;;;7399421;19;3867;-60
2023/12/01 03:20:14;;;;;;;;;;;18.30;44.90;;;;;;7400027;19;1851;-60
2023/12/01 03:22:40;;;;;;;;;;;18.20;45.00;;;;;;7396522;19;1614;-60
2023/12/01 03:25:12;;;;;;;;;;;18.30;45.00;;;;;;7393562;19;3534;-60
2023/12/01 03:27:39;;;;;;;;;;;18.30;44.90;;;;;;7401684;19;1574;-60
2023/12/01 03:30:13;;;;;;;;;;;18.30;45.10;;;;;;7396003;19;3373;-60
2023/12/01 03:32:48;;;;;;;;;;;18.30;45.10;;;;;;7397917;19;3469;-61
2023/12/01 03:35:15;;;;;;;;;;;18.20;45.10;;;;;;7400928;19;863;-61
2023/12/01 03:37:40;;;;;;;;;;;18.20;44.80;;;;;;7392861;19;1194;-60
2023/12/01 03:40:12;;;;;;;;;;;18.20;45.10;;;;;;7400067;19;1846;-60
2023/12/01 03:42:38;;;;;;;;;;;18.20;45.10;;;;;;7397447;19;3532;-60
2023/12/01 03:45:06;;;;;;;;;;;18.20;44.80;;;;;;7398346;19;1510;-60
2023/12/01 03:47:32;;;;;;;;;;;18.20;44.90;;;;;;7395977;19;3481;-60
2023/12/01 03:49:58;;;;;;;;;;;18.20;44.80;;;;;;7398454;19;1526;-60
2023/12/01 03:52:23;;;;;;;;;;;18.30;44.80;;;;;;7400124;19;1590;-61
2023/12/01 03:54:49;;;;;;;;;;;18.20;44.70;;;;;;7396455;19;3928;-60
2023/12/01 03:57:14;;;;;;;;;;;18.30;44.90;;;;;;7398728;19;1494;-60
2023/12/01 03:59:39;;;;;;;;;;;18.30;44.80;;;;;;7396726;19;1783;-60
2023/12/01 04:02:05;;;;;;;;;;;18.30;44.90;;;;;;7393683;19;3177;-60
2023/12/01 04:04:30;;;;;;;;;;;18.30;44.90;;;;;;7401265;19;3622;-60
2023/12/01 04:06:56;;;;;;;;;;;18.30;44.80;;;;;;7395011;19;4615;-60
2023/12/01 04:09:21;;;;;;;;;;;18.20;44.80;;;;;;7399379;19;3833;-61
2023/12/01 04:11:46;;;;;;;;;;;18.20;44.70;;;;;;7400841;19;1519;-60
2023/12/01 04:14:12;;;;;;;;;;;18.20;44.60;;;;;;7396619;19;3405;-61
2023/12/01 04:16:38;;;;;;;;;;;18.20;44.70;;;;;;7398801;19;3419;-60
2023/12/01 04:19:04;;;;;;;;;;;18.20;44.60;;;;;;7398936;19;1845;-60
2023/12/01 04:21:29;;;;;;;;;;;18.20;44.70;;;;;;7394135;19;3878;-60
2023/12/01 04:23:54;;;;;;;;;;;18.20;44.80;;;;;;7400241;19;1871;-60
2023/12/01 04:26:20;;;;;;;;;;;18.10;44.80;;;;;;7399756;19;1578;-60
2023/12/01 04:28:45;;;;;;;;;;;18.10;44.90;;;;;;7396932;19;1449;-60
2023/12/01 04:31:11;;;;;;;;;;;18.10;44.90;;;;;;7393688;19;4242;-60
2023/12/01 04:33:36;;;;;;;;;;;18.10;44.80;;;;;;7399460;19;1803;-61
2023/12/01 04:36:06;;;;;;;;;;;18.10;44.80;;;;;;7398252;19;1553;-60
2023/12/01 04:38:35;;;;;;;;;;;18.10;45.10;;;;;;7393989;19;3899;-60
2023/12/01 04:41:01;;;;;;;;;;;18.10;45.00;;;;;;7396389;19;1841;-60
2023/12/01 04:43:28;;;;;;;;;;;18.10;45.10;;;;;;7394055;19;2194;-60
2023/12/01 04:45:53;;;;;;;;;;;18.10;45.00;;;;;;7395647;19;3510;-60
2023/12/01 04:48:19;;;;;;;;;;;18.10;44.80;;;;;;7398556;19;1843;-60
2023/12/01 04:50:46;;;;;;;;;;;18.10;45.00;;;;;;7393060;19;3528;-60
2023/12/01 04:53:12;;;;;;;;;;;18.00;44.70;;;;;;7397188;19;1555;-60
2023/12/01 04:55:37;;;;;;;;;;;18.10;45.10;;;;;;7398834;19;1776;-61
2023/12/01 04:58:03;;;;;;;;;;;18.10;44.80;;;;;;7397998;19;1451;-60
2023/12/01 05:00:28;;;;;;;;;;;18.10;44.80;;;;;;7390227;19;3457;-60
2023/12/01 05:02:54;;;;;;;;;;;18.10;44.60;;;;;;7396798;19;1534;-60
2023/12/01 05:05:20;;;;;;;;;;;18.10;44.80;;;;;;7395695;19;3806;-60
2023/12/01 05:07:49;;;;;;;;;;;18.10;44.80;;;;;;7393043;19;3549;-60
2023/12/01 05:10:15;;;;;;;;;;;18.10;45.00;;;;;;7396908;19;1549;-60
2023/12/01 05:12:41;;;;;;;;;;;18.10;44.80;;;;;;7396428;19;1900;-60
2023/12/01 05:15:15;;;;;;;;;;;18.00;44.80;;;;;;7394659;19;3468;-60
2023/12/01 05:17:47;;;;;;;;;;;18.00;44.90;;;;;;7394603;19;3538;-60
2023/12/01 05:20:15;;;;;;;;;;;18.00;44.90;;;;;;7394023;19;3552;-60
2023/12/01 05:22:41;;;;;;;;;;;18.00;44.90;;;;;;7395014;19;1574;-60
2023/12/01 05:25:13;;;;;;;;;;;18.00;45.00;;;;;;7397597;19;1603;-60
2023/12/01 05:27:40;;;;;;;;;;;18.00;45.10;;;;;;7396331;19;3382;-60
2023/12/01 05:30:05;;;;;;;;;;;17.90;44.90;;;;;;7393593;19;1591;-60
2023/12/01 05:32:31;;;;;;;;;;;18.00;44.90;;;;;;7397213;19;1995;-60
2023/12/01 05:34:56;;;;;;;;;;;18.00;45.00;;;;;;7395325;19;3533;-60
2023/12/01 05:37:22;;;;;;;;;;;18.00;44.90;;;;;;7392257;19;3521;-60
2023/12/01 05:39:47;;;;;;;;;;;17.90;44.80;;;;;;7395813;19;1846;-60
2023/12/01 05:42:13;;;;;;;;;;;18.00;44.80;;;;;;7393691;19;3288;-60
2023/12/01 05:44:41;;;;;;;;;;;18.00;44.70;;;;;;7393768;19;3585;-60
2023/12/01 05:47:06;;;;;;;;;;;18.00;44.70;;;;;;7397284;19;1974;-60
2023/12/01 05:49:32;;;;;;;;;;;18.00;44.70;;;;;;7394903;19;3583;-60
2023/12/01 05:51:57;;;;;;;;;;;18.00;44.70;;;;;;7395294;19;1870;-60
2023/12/01 05:54:22;;;;;;;;;;;18.00;44.60;;;;;;7394416;19;1684;-61
2023/12/01 05:56:48;;;;;;;;;;;18.00;44.80;;;;;;7395429;19;3465;-60
2023/12/01 05:59:13;;;;;;;;;;;18.00;44.70;;;;;;7393012;19;3857;-61
2023/12/01 06:01:39;;;;;;;;;;;18.00;44.70;;;;;;7399121;19;1856;-60
2023/12/01 06:04:04;;;;;;;;;;;18.00;44.70;;;;;;7400779;19;3604;-61
2023/12/01 06:06:30;;;;;;;;;;;18.00;44.70;;;;;;7400568;19;890;-60
2023/12/01 06:08:56;;;;;;;;;;;17.90;44.70;;;;;;7400798;19;1503;-60
2023/12/01 06:11:21;;;;;;;;;;;18.00;44.80;;;;;;7400681;19;3595;-60
2023/12/01 06:13:46;;;;;;;;;;;17.90;44.70;;;;;;7402943;19;1519;-60
2023/12/01 06:16:12;;;;;;;;;;;17.90;44.70;;;;;;7404477;19;2376;-60
2023/12/01 06:18:37;;;;;;;;;;;17.90;44.70;;;;;;7403985;19;1565;-60
2023/12/01 06:21:03;;;;;;;;;;;17.90;44.70;;;;;;7395974;19;3457;-60
2023/12/01 06:23:28;;;;;;;;;;;17.90;44.50;;;;;;7402799;19;1705;-60
2023/12/01 06:25:54;;;;;;;;;;;17.90;44.50;;;;;;7401371;19;3472;-60
2023/12/01 06:28:19;;;;;;;;;;;17.90;44.50;;;;;;7404030;19;1460;-60
2023/12/01 06:30:45;;;;;;;;;;;18.00;44.60;;;;;;7400863;19;1575;-60
2023/12/01 06:33:10;;;;;;;;;;;18.00;44.50;;;;;;7396266;19;3577;-60
2023/12/01 06:35:36;;;;;;;;;;;18.00;44.40;;;;;;7402000;19;3768;-60
2023/12/01 06:38:02;;;;;;;;;;;18.10;44.50;;;;;;7400895;19;1542;-60
2023/12/01 06:40:28;;;;;;;;;;;18.10;44.30;;;;;;7399037;19;3499;-60
2023/12/01 06:42:56;;;;;;;;;;;18.10;44.40;;;;;;7398731;19;3870;-60
2023/12/01 06:45:23;;;;;;;;;;;18.10;44.30;;;;;;7393737;19;3361;-60
2023/12/01 06:47:49;;;;;;;;;;;18.10;44.20;;;;;;7403100;19;3324;-60
2023/12/01 06:50:15;;;;;;;;;;;18.10;44.40;;;;;;7400255;19;1711;-60
2023/12/01 06:52:41;;;;;;;;;;;18.20;44.20;;;;;;7402739;19;1484;-60
2023/12/01 06:55:07;;;;;;;;;;;18.20;44.30;;;;;;7399741;19;4288;-60
2023/12/01 06:57:35;;;;;;;;;;;18.10;44.10;;;;;;7401230;19;1662;-60
2023/12/01 07:00:00;;;;;;;;;;;18.20;44.20;;;;;;7398211;19;1965;-60
2023/12/01 07:02:26;;;;;;;;;;;18.10;44.10;;;;;;7399537;19;3573;-60
2023/12/01 07:04:55;;;;;;;;;;;18.10;44.00;;;;;;7400885;19;3500;-60
2023/12/01 07:07:21;;;;;;;;;;;18.10;44.10;;;;;;7402076;19;3172;-61
2023/12/01 07:09:47;;;;;;;;;;;18.10;44.10;;;;;;7399506;19;3525;-60
2023/12/01 07:12:13;;;;;;;;;;;18.10;44.10;;;;;;7402585;19;1676;-60
2023/12/01 07:14:38;;;;;;;;;;;18.10;44.00;;;;;;7398411;19;1554;-60
2023/12/01 07:17:05;;;;;;;;;;;18.10;44.00;;;;;;7398942;19;4178;-60
2023/12/01 07:19:34;;;;;;;;;;;18.10;44.10;;;;;;7399928;19;1759;-60
2023/12/01 07:21:59;;;;;;;;;;;18.10;44.30;;;;;;7396171;19;3510;-60
2023/12/01 07:24:25;;;;;;;;;;;18.10;44.20;;;;;;7395931;19;3505;-60
2023/12/01 07:26:51;;;;;;;;;;;18.20;44.10;;;;;;7402564;19;1636;-60
2023/12/01 07:29:20;;;;;;;;;;;18.10;44.00;;;;;;7396629;19;3428;-60
2023/12/01 07:31:45;;;;;;;;;;;18.20;44.10;;;;;;7400106;19;1531;-60
2023/12/01 07:34:11;;;;;;;;;;;18.20;44.00;;;;;;7399907;19;1978;-60
2023/12/01 07:36:37;;;;;;;;;;;18.20;44.10;;;;;;7399233;19;1755;-60
2023/12/01 07:39:02;;;;;;;;;;;18.20;44.00;;;;;;7398354;19;3544;-60
2023/12/01 07:41:28;;;;;;;;;;;18.20;43.90;;;;;;7398805;19;1846;-60
2023/12/01 07:43:55;;;;;;;;;;;18.20;44.00;;;;;;7396703;19;4243;-60
2023/12/01 07:46:20;;;;;;;;;;;18.20;43.90;;;;;;7400349;19;3900;-60
2023/12/01 07:48:46;;;;;;;;;;;18.20;43.90;;;;;;7400920;19;1487;-60
2023/12/01 07:51:11;;;;;;;;;;;18.20;43.90;;;;;;7399476;19;1594;-60
2023/12/01 07:53:37;;;;;;;;;;;18.20;44.10;;;;;;7394359;19;3579;-60
2023/12/01 07:56:03;;;;;;;;;;;18.20;43.90;;;;;;7401492;19;1748;-60
2023/12/01 07:58:28;;;;;;;;;;;18.10;43.90;;;;;;7396997;19;1806;-60
2023/12/01 08:00:55;;;;;;;;;;;18.10;44.10;;;;;;7394816;19;3292;-60
2023/12/01 08:03:21;;;;;;;;;;;18.10;44.00;;;;;;7397344;19;1939;-60
2023/12/01 08:05:46;;;;;;;;;;;18.10;44.00;;;;;;7397586;19;3183;-61
2023/12/01 08:08:14;;;;;;;;;;;18.10;44.80;;;;;;7395299;19;3579;-60
2023/12/01 08:10:39;;;;;;;;;;;18.10;44.10;;;;;;7398361;19;1473;-60
2023/12/01 08:13:05;;;;;;;;;;;18.10;44.00;;;;;;7396364;19;4131;-60
2023/12/01 08:15:31;;;;;;;;;;;18.10;44.00;;;;;;7398308;19;1565;-61
2023/12/01 08:17:58;;;;;;;;;;;18.10;44.20;;;;;;7396050;19;3841;-60
2023/12/01 08:20:23;;;;;;;;;;;18.10;44.00;;;;;;7393059;19;3544;-60
2023/12/01 08:22:49;;;;;;;;;;;18.10;43.90;;;;;;7396850;19;3882;-60
2023/12/01 08:25:15;;;;;;;;;;;18.10;43.90;;;;;;7397011;19;4201;-60
2023/12/01 08:27:41;;;;;;;;;;;18.10;43.70;;;;;;7396284;19;4145;-60
2023/12/01 08:30:07;;;;;;;;;;;18.10;43.90;;;;;;7397501;19;1577;-60
2023/12/01 08:32:32;;;;;;;;;;;18.20;44.00;;;;;;7395498;19;3415;-60
2023/12/01 08:34:58;;;;;;;;;;;18.20;43.90;;;;;;7394378;19;3347;-60
2023/12/01 08:37:23;;;;;;;;;;;18.20;43.90;;;;;;7394548;19;3862;-60
2023/12/01 08:39:49;;;;;;;;;;;18.10;43.90;;;;;;7398158;19;1578;-61
2023/12/01 08:42:14;;;;;;;;;;;18.10;44.00;;;;;;7394633;19;1876;-60
2023/12/01 08:44:40;;;;;;;;;;;18.10;44.00;;;;;;7393285;19;4518;-60
2023/12/01 08:47:06;;;;;;;;;;;18.10;43.90;;;;;;7397632;19;2116;-60
2023/12/01 08:49:31;;;;;;;;;;;18.10;43.90;;;;;;7395930;19;2998;-61
2023/12/01 08:51:56;;;;;;;;;;;18.10;44.10;;;;;;7394834;19;3512;-61
2023/12/01 08:54:22;;;;;;;;;;;18.10;44.00;;;;;;7398936;19;1561;-61
2023/12/01 08:56:48;;;;;;;;;;;18.10;43.90;;;;;;7395507;19;1557;-61
2023/12/01 08:59:13;;;;;;;;;;;18.10;44.10;;;;;;7391835;19;3631;-61
2023/12/01 09:01:40;;;;;;;;;;;18.10;44.00;;;;;;7395271;19;1848;-61
2023/12/01 09:04:06;;;;;;;;;;;18.10;44.20;;;;;;7393363;19;3460;-62
2023/12/01 09:06:31;;;;;;;;;;;18.10;44.10;;;;;;7394761;19;4132;-61
2023/12/01 09:08:57;;;;;;;;;;;18.10;44.20;;;;;;7397396;19;3619;-61
2023/12/01 09:11:22;;;;;;;;;;;18.10;44.10;;;;;;7394525;19;4394;-61
2023/12/01 09:13:48;;;;;;;;;;;18.10;43.90;;;;;;7397564;19;1519;-61
2023/12/01 09:16:13;;;;;;;;;;;18.10;44.00;;;;;;7396757;19;1514;-61
2023/12/01 09:18:39;;;;;;;;;;;18.10;44.10;;;;;;7393704;19;3772;-62
2023/12/01 09:21:04;;;;;;;;;;;18.10;44.10;;;;;;7396087;19;1850;-61
2023/12/01 09:23:30;;;;;;;;;;;18.10;44.00;;;;;;7392757;19;3933;-61
2023/12/01 09:25:55;;;;;;;;;;;18.20;44.30;;;;;;7390043;19;3567;-61
2023/12/01 09:28:22;;;;;;;;;;;18.10;44.20;;;;;;7394184;19;1445;-61
2023/12/01 09:30:48;;;;;;;;;;;18.20;44.50;;;;;;7390580;19;5323;-61
2023/12/01 09:33:13;;;;;;;;;;;18.20;44.40;;;;;;7393916;19;4530;-61
2023/12/01 09:35:38;;;;;;;;;;;18.20;44.30;;;;;;7404274;19;1772;-61
2023/12/01 09:38:04;;;;;;;;;;;18.20;44.40;;;;;;7403738;19;1565;-61
2023/12/01 09:40:30;;;;;;;;;;;18.20;44.30;;;;;;7400669;19;3465;-61
2023/12/01 09:42:56;;;;;;;;;;;18.20;44.30;;;;;;7402649;19;3263;-61
2023/12/01 09:45:22;;;;;;;;;;;18.20;44.30;;;;;;7403671;19;1766;-61
2023/12/01 09:47:50;;;;;;;;;;;18.20;44.40;;;;;;7397435;19;3774;-61
2023/12/01 09:50:15;;;;;;;;;;;18.20;44.40;;;;;;7404276;19;3721;-61
2023/12/01 09:52:42;;;;;;;;;;;18.20;44.50;;;;;;7388672;19;6783;-61
2023/12/01 09:55:07;;;;;;;;;;;18.30;44.30;;;;;;7396492;19;6727;-61
2023/12/01 09:57:33;;;;;;;;;;;18.50;44.70;;;;;;7399496;19;5401;-63
2023/12/01 09:59:58;;;;;;;;;;;19.00;44.00;;;;;;7397074;19;4282;-62
2023/12/01 10:02:23;;;;;;;;;;;19.30;43.80;;;;;;7400932;19;6909;-63
2023/12/01 10:04:50;;;;;;;;;;;19.60;43.10;;;;;;7402405;19;7293;-63
2023/12/01 10:07:15;;;;;;;;;;;19.90;42.70;;;;;;7400724;19;1643;-62
2023/12/01 10:09:42;;;;;;;;;;;20.00;42.30;;;;;;7403833;19;1468;-62
2023/12/01 10:12:10;;;;;;;;;;;20.10;42.30;;;;;;7401724;19;6717;-62
2023/12/01 10:14:41;;;;;;;;;;;20.20;42.30;;;;;;7396443;19;5440;-62
2023/12/01 10:17:07;;;;;;;;;;;20.20;42.20;;;;;;7399488;19;5365;-62
2023/12/01 10:19:33;;;;;;;;;;;20.30;42.20;;;;;;7397933;19;5493;-63
2023/12/01 10:21:59;;;;;;;;;;;20.30;42.10;;;;;;7395555;19;4343;-62
2023/12/01 10:24:24;;;;;;;;;;;20.40;42.10;;;;;;7404183;19;3976;-62
2023/12/01 10:26:50;;;;;;;;;;;20.40;42.30;;;;;;7402286;19;3575;-62
2023/12/01 10:29:22;;;;;;;;;;;20.40;42.60;;;;;;7403066;19;1963;-63
2023/12/01 10:31:48;;;;;;;;;;;20.30;42.40;;;;;;7401852;19;1710;-62
2023/12/01 10:34:13;;;;;;;;;;;20.30;42.60;;;;;;7399309;19;5336;-62
2023/12/01 10:36:39;;;;;;;;;;;20.30;42.90;;;;;;7401422;19;4285;-61
2023/12/01 10:39:04;;;;;;;;;;;20.30;42.90;;;;;;7403148;19;1643;-62
2023/12/01 10:41:29;;;;;;;;;;;20.30;43.10;;;;;;7400359;19;3421;-62
2023/12/01 10:43:55;;;;;;;;;;;20.40;42.90;;;;;;7388336;19;5314;-63
2023/12/01 10:46:20;;;;;;;;;;;20.50;43.00;;;;;;7392489;19;4412;-63
2023/12/01 10:48:46;;;;;;;;;;;20.50;43.10;;;;;;7392840;19;5475;-63
2023/12/01 10:51:11;;;;;;;;;;;20.50;43.10;;;;;;7398587;19;3916;-62
2023/12/01 10:53:36;;;;;;;;;;;20.50;43.30;;;;;;7399642;19;1550;-62
2023/12/01 10:56:03;;;;;;;;;;;20.50;43.20;;;;;;7402309;19;4053;-62
2023/12/01 10:58:29;;;;;;;;;;;20.60;43.40;;;;;;7401760;19;1671;-62
2023/12/01 11:00:57;;;;;;;;;;;20.60;43.40;;;;;;7394448;19;4700;-62
2023/12/01 11:03:23;;;;;;;;;;;20.60;43.40;;;;;;7402692;19;1606;-61
2023/12/01 11:05:51;;;;;;;;;;;20.60;43.50;;;;;;7396586;19;3203;-62
2023/12/01 11:08:20;;;;;;;;;;;20.60;43.50;;;;;;7390625;19;3527;-61
2023/12/01 11:10:57;;;;;;;;;;;20.70;43.60;;;;;;7384361;19;5681;-61
2023/12/01 11:13:25;;;;;;;;;;;20.70;43.80;;;;;;7400835;19;3857;-62
2023/12/01 11:15:51;;;;;;;;;;;20.70;43.60;;;;;;7388788;19;5573;-62
2023/12/01 11:18:16;;;;;;;;;;;20.70;44.00;;;;;;7396350;19;3558;-61
2023/12/01 11:20:43;;;;;;;;;;;20.60;43.80;;;;;;7398732;19;1842;-62
2023/12/01 11:23:08;;;;;;;;;;;20.60;43.80;;;;;;7399826;19;1665;-61
2023/12/01 11:25:41;;;;;;;;;;;20.70;43.90;;;;;;7400357;19;1710;-62
2023/12/01 11:28:21;;;;;;;;;;;20.70;43.90;;;;;;7399036;19;2894;-61
2023/12/01 11:31:07;;;;;;;;;;;20.70;43.80;;;;;;7398611;19;1637;-62
2023/12/01 11:33:33;;;;;;;;;;;20.70;44.10;;;;;;7398876;19;2006;-62
2023/12/01 11:36:17;;;;;;;;;;;20.60;44.00;;;;;;7397836;19;1640;-61
2023/12/01 11:39:08;;;;;;;;;;;20.70;44.20;;;;;;7401147;19;1576;-61
2023/12/01 11:41:33;;;;;;;;;;;20.70;44.00;;;;;;7390457;19;5612;-61
2023/12/01 11:44:04;;;;;;;;;;;20.70;44.10;;;;;;7399243;19;4266;-61
2023/12/01 11:46:30;;;;;;;;;;;20.70;44.10;;;;;;7397315;19;2062;-62
2023/12/01 11:48:55;;;;;;;;;;;20.70;44.40;;;;;;7397313;19;3664;-62
2023/12/01 11:51:23;;;;;;;;;;;20.70;44.30;;;;;;7399894;19;1619;-62
2023/12/01 11:53:57;;;;;;;;;;;20.70;44.20;;;;;;7400277;19;1424;-61
2023/12/01 11:56:24;;;;;;;;;;;20.70;44.40;;;;;;7400566;19;1927;-61
2023/12/01 11:58:50;;;;;;;;;;;20.70;44.50;;;;;;7392047;19;3228;-61
2023/12/01 12:01:15;;;;;;;;;;;20.70;44.40;;;;;;7395639;19;3520;-61
2023/12/01 12:03:40;;;;;;;;;;;20.80;44.30;;;;;;7396699;19;3258;-61
2023/12/01 12:06:07;;;;;;;;;;;20.70;44.40;;;;;;7396461;19;3499;-61
2023/12/01 12:08:32;;;;;;;;;;;20.70;44.20;;;;;;7399714;19;1691;-61
2023/12/01 12:10:59;;;;;;;;;;;20.70;44.40;;;;;;7400483;19;1575;-61
2023/12/01 12:13:24;;;;;;;;;;;20.60;44.40;;;;;;7397180;19;4099;-61
2023/12/01 12:15:50;;;;;;;;;;;20.70;44.60;;;;;;7396482;19;839;-60
2023/12/01 12:18:15;;;;;;;;;;;20.60;44.10;;;;;;7396602;19;3958;-60
2023/12/01 12:20:41;;;;;;;;;;;20.60;44.10;;;;;;7384812;19;5495;-61
2023/12/01 12:23:06;;;;;;;;;;;20.60;44.10;;;;;;7396871;19;4524;-62
2023/12/01 12:25:35;;;;;;;;;;;20.60;44.40;;;;;;7396776;19;1727;-62
2023/12/01 12:28:10;;;;;;;;;;;20.60;44.00;;;;;;7398280;19;4099;-62
2023/12/01 12:30:36;;;;;;;;;;;20.60;44.00;;;;;;7397941;19;1307;-62
2023/12/01 12:33:01;;;;;;;;;;;20.60;43.80;;;;;;7397184;19;5956;-62
2023/12/01 12:35:27;;;;;;;;;;;20.60;43.90;;;;;;7395757;19;1710;-62
2023/12/01 12:37:52;;;;;;;;;;;20.50;43.70;;;;;;7395942;19;3393;-62
2023/12/01 12:40:18;;;;;;;;;;;20.50;44.00;;;;;;7392899;19;3347;-62
2023/12/01 12:42:56;;;;;;;;;;;20.50;43.80;;;;;;7397347;19;1552;-61
2023/12/01 12:45:21;;;;;;;;;;;20.60;44.10;;;;;;7394148;19;1365;-62
2023/12/01 12:47:47;;;;;;;;;;;20.60;44.00;;;;;;7391715;19;3358;-62
2023/12/01 12:50:17;;;;;;;;;;;20.60;43.70;;;;;;7394508;19;3715;-62
2023/12/01 12:52:42;;;;;;;;;;;20.60;43.90;;;;;;7396640;19;3296;-63
2023/12/01 12:55:09;;;;;;;;;;;20.60;43.30;;;;;;7391675;19;4326;-62
2023/12/01 12:57:34;;;;;;;;;;;20.50;43.40;;;;;;7396628;19;1526;-62
2023/12/01 13:00:00;;;;;;;;;;;20.60;43.80;;;;;;7394900;19;2501;-62
2023/12/01 13:02:25;;;;;;;;;;;20.60;43.50;;;;;;7393677;19;3557;-62
2023/12/01 13:04:51;;;;;;;;;;;20.60;43.30;;;;;;7396262;19;994;-62
2023/12/01 13:07:16;;;;;;;;;;;20.50;43.40;;;;;;7394953;19;3247;-62
2023/12/01 13:09:42;;;;;;;;;;;20.50;43.50;;;;;;7394620;19;966;-62
2023/12/01 13:12:08;;;;;;;;;;;20.60;43.80;;;;;;7396218;19;3669;-62
2023/12/01 13:14:33;;;;;;;;;;;20.60;43.40;;;;;;7394484;19;1722;-62
2023/12/01 13:16:58;;;;;;;;;;;20.60;43.40;;;;;;7395122;19;3669;-62
2023/12/01 13:19:24;;;;;;;;;;;20.60;43.50;;;;;;7393444;19;1673;-62
2023/12/01 13:21:49;;;;;;;;;;;20.60;43.10;;;;;;7396146;19;1900;-62
2023/12/01 13:24:15;;;;;;;;;;;20.70;43.30;;;;;;7396936;19;2849;-63
2023/12/01 13:26:40;;;;;;;;;;;20.60;42.90;;;;;;7395922;19;3682;-62
2023/12/01 13:29:06;;;;;;;;;;;20.60;43.40;;;;;;7394105;19;827;-63
2023/12/01 13:31:32;;;;;;;;;;;20.70;43.20;;;;;;7394203;19;3520;-62
2023/12/01 13:33:57;;;;;;;;;;;20.70;43.20;;;;;;7394361;19;1030;-62
2023/12/01 13:36:23;;;;;;;;;;;20.70;43.10;;;;;;7394171;19;3381;-62
2023/12/01 13:38:48;;;;;;;;;;;20.70;43.10;;;;;;7396021;19;3269;-62
2023/12/01 13:41:14;;;;;;;;;;;20.70;43.10;;;;;;7393326;19;1858;-62
2023/12/01 13:43:39;;;;;;;;;;;20.80;43.20;;;;;;7397006;19;1607;-62
2023/12/01 13:46:05;;;;;;;;;;;20.80;43.20;;;;;;7395832;19;3865;-62
2023/12/01 13:48:31;;;;;;;;;;;20.80;43.00;;;;;;7396287;19;1960;-63
2023/12/01 13:50:56;;;;;;;;;;;20.80;42.90;;;;;;7392411;19;4275;-62
2023/12/01 13:53:22;;;;;;;;;;;20.80;42.90;;;;;;7393155;19;3665;-62
2023/12/01 13:55:47;;;;;;;;;;;20.90;42.90;;;;;;7394794;19;1759;-62
2023/12/01 13:58:13;;;;;;;;;;;20.90;42.90;;;;;;7395722;19;1717;-62
2023/12/01 14:00:38;;;;;;;;;;;20.90;42.90;;;;;;7388559;19;4263;-62
2023/12/01 14:03:04;;;;;;;;;;;20.90;42.90;;;;;;7397804;19;3790;-62
2023/12/01 14:05:30;;;;;;;;;;;20.90;42.90;;;;;;7396292;19;1991;-62
2023/12/01 14:07:56;;;;;;;;;;;20.90;42.60;;;;;;7394479;19;3628;-62
2023/12/01 14:10:22;;;;;;;;;;;20.90;42.70;;;;;;7393854;19;1047;-62
2023/12/01 14:12:47;;;;;;;;;;;20.90;42.70;;;;;;7393476;19;1706;-63
2023/12/01 14:15:13;;;;;;;;;;;20.90;42.60;;;;;;7392264;19;3395;-62
2023/12/01 14:17:38;;;;;;;;;;;20.90;42.70;;;;;;7392270;19;808;-62
2023/12/01 14:20:04;;;;;;;;;;;20.80;42.50;;;;;;7392082;19;3935;-62
2023/12/01 14:22:30;;;;;;;;;;;20.90;42.60;;;;;;7402300;19;3895;-62
2023/12/01 14:24:55;;;;;;;;;;;20.80;42.60;;;;;;7398810;19;3398;-62